Time;durP1;ratioP1;P1;durP2;ratioP2;P2;SDS_P1;SDS_P2;PMS_P1;PMS_P2;Temp;Humidity;BMP_temperature;BMP_pressure;BME280_temperature;BME280_humidity;BME280_pressure;Samples;Min_cycle;Max_cycle;Signal;HPM_P1;HPM_P2
2023/09/09 00:01:39;;;;;;;8.10;6.10;;;;;;;18.82;100.00;97398.53;5071714;28;20815;-73
2023/09/09 00:04:05;;;;;;;6.70;5.55;;;;;;;18.79;100.00;97399.16;5071366;28;20402;-73
2023/09/09 00:06:31;;;;;;;8.00;5.70;;;;;;;18.76;100.00;97393.59;5071734;28;20406;-73
2023/09/09 00:08:57;;;;;;;7.47;6.10;;;;;;;18.73;100.00;97394.97;5071813;28;20431;-74
2023/09/09 00:11:24;;;;;;;9.10;6.28;;;;;;;18.71;100.00;97399.09;5071561;28;20407;-73
2023/09/09 00:13:51;;;;;;;9.37;6.17;;;;;;;18.68;100.00;97392.44;5071134;28;20481;-73
2023/09/09 00:16:18;;;;;;;6.22;5.28;;;;;;;18.67;100.00;97401.56;5071489;28;20857;-73
2023/09/09 00:18:45;;;;;;;9.20;5.97;;;;;;;18.64;100.00;97407.53;5071298;28;20410;-73
2023/09/09 00:21:11;;;;;;;7.45;6.07;;;;;;;18.59;100.00;97396.91;5071359;28;20826;-73
2023/09/09 00:23:37;;;;;;;7.60;5.72;;;;;;;18.58;100.00;97403.38;5070937;28;20449;-73
2023/09/09 00:26:04;;;;;;;7.82;6.20;;;;;;;18.57;100.00;97399.09;5071261;28;20487;-73
2023/09/09 00:28:30;;;;;;;8.80;6.23;;;;;;;18.58;100.00;97400.69;5070475;28;20395;-73
2023/09/09 00:30:56;;;;;;;9.38;6.22;;;;;;;18.57;100.00;97401.00;5071109;28;20896;-74
2023/09/09 00:33:22;;;;;;;8.52;6.47;;;;;;;18.55;100.00;97401.28;5070809;28;20423;-74
2023/09/09 00:35:50;;;;;;;8.00;5.97;;;;;;;18.53;100.00;97398.88;5071038;28;20459;-74
2023/09/09 00:38:17;;;;;;;9.63;5.88;;;;;;;18.51;100.00;97400.28;5071117;28;20395;-74
2023/09/09 00:41:04;;;;;;;8.45;6.55;;;;;;;18.47;100.00;97396.63;5070936;28;20915;-73
2023/09/09 00:43:31;;;;;;;7.55;6.00;;;;;;;18.44;100.00;97397.22;5070438;28;20426;-74
2023/09/09 00:45:57;;;;;;;8.77;6.03;;;;;;;18.42;100.00;97394.81;5070847;28;20400;-73
2023/09/09 00:48:23;;;;;;;7.50;5.72;;;;;;;18.41;100.00;97398.63;5071005;28;20403;-74
2023/09/09 00:50:51;;;;;;;7.05;5.45;;;;;;;18.40;100.00;97397.03;5070865;28;20407;-74
2023/09/09 00:53:17;;;;;;;8.02;5.93;;;;;;;18.38;100.00;97393.06;5070484;28;20422;-73
2023/09/09 00:55:44;;;;;;;9.38;6.63;;;;;;;18.34;100.00;97395.56;5070687;28;20625;-73
2023/09/09 00:58:10;;;;;;;8.88;6.10;;;;;;;18.31;100.00;97400.72;5070731;28;20396;-73
2023/09/09 01:00:38;;;;;;;9.27;6.70;;;;;;;18.27;100.00;97391.72;5070628;28;20403;-73
2023/09/09 01:03:05;;;;;;;8.95;6.38;;;;;;;18.26;100.00;97390.13;5070633;28;20487;-74
2023/09/09 01:05:32;;;;;;;7.13;5.60;;;;;;;18.26;100.00;97406.19;5070311;28;20407;-73
2023/09/09 01:07:59;;;;;;;9.13;6.10;;;;;;;18.25;100.00;97392.00;5070582;28;20461;-74
2023/09/09 01:10:25;;;;;;;7.50;5.63;;;;;;;18.26;100.00;97392.78;5070590;28;20883;-74
2023/09/09 01:12:52;;;;;;;6.38;5.25;;;;;;;18.24;100.00;97395.75;5070461;28;20411;-73
2023/09/09 01:15:18;;;;;;;10.48;6.38;;;;;;;18.21;100.00;97396.34;5070046;28;20411;-73
2023/09/09 01:17:45;;;;;;;7.35;5.38;;;;;;;18.19;100.00;97393.19;5070306;28;20881;-73
2023/09/09 01:20:15;;;;;;;6.78;5.60;;;;;;;18.13;100.00;97394.38;5070602;28;20418;-73
2023/09/09 01:22:44;;;;;;;9.13;6.38;;;;;;;18.09;100.00;97402.22;5070269;28;20407;-73
2023/09/09 01:25:11;;;;;;;6.50;5.32;;;;;;;18.05;100.00;97403.91;5070068;28;20892;-73
2023/09/09 01:27:38;;;;;;;8.00;6.20;;;;;;;18.01;100.00;97405.59;5070334;28;20768;-73
2023/09/09 01:30:06;;;;;;;8.52;6.15;;;;;;;18.01;100.00;97402.94;5070365;28;20402;-73
2023/09/09 01:32:32;;;;;;;7.65;5.72;;;;;;;17.99;100.00;97405.09;5070218;28;20392;-73
2023/09/09 01:34:59;;;;;;;8.23;6.10;;;;;;;17.98;100.00;97395.47;5069831;28;20439;-73
2023/09/09 01:37:25;;;;;;;9.00;6.53;;;;;;;17.97;100.00;97401.91;5070315;28;20517;-73
2023/09/09 01:39:52;;;;;;;8.57;6.45;;;;;;;17.93;100.00;97405.50;5069921;28;20533;-73
2023/09/09 01:42:18;;;;;;;8.30;6.10;;;;;;;17.90;100.00;97406.09;5070143;28;20461;-73
2023/09/09 01:44:46;;;;;;;8.77;6.10;;;;;;;17.89;100.00;97401.84;5069921;28;20396;-73
2023/09/09 01:47:15;;;;;;;8.05;6.10;;;;;;;17.88;100.00;97408.28;5070203;28;20400;-73
2023/09/09 01:49:42;;;;;;;8.45;6.50;;;;;;;17.85;100.00;97407.00;5070061;28;20799;-73
2023/09/09 01:52:08;;;;;;;10.27;6.40;;;;;;;17.84;100.00;97413.44;5070074;28;20410;-73
2023/09/09 01:54:34;;;;;;;8.10;5.90;;;;;;;17.83;100.00;97411.03;5069535;28;20781;-73
2023/09/09 01:57:02;;;;;;;8.25;5.88;;;;;;;17.85;100.00;97407.00;5070001;28;20491;-73
2023/09/09 01:59:29;;;;;;;7.32;6.10;;;;;;;17.83;100.00;97401.13;5070204;28;20408;-73
2023/09/09 02:01:55;;;;;;;7.95;6.57;;;;;;;17.80;100.00;97407.09;5069922;28;20400;-73
2023/09/09 02:04:21;;;;;;;11.02;6.32;;;;;;;17.79;100.00;97408.19;5069686;28;20453;-73
2023/09/09 02:06:48;;;;;;;7.82;5.78;;;;;;;17.78;100.00;97406.59;5069876;28;20582;-73
2023/09/09 02:09:14;;;;;;;8.03;5.90;;;;;;;17.77;100.00;97399.63;5069766;28;20447;-74
2023/09/09 02:11:40;;;;;;;7.63;5.85;;;;;;;17.76;100.00;97403.41;5069798;28;20503;-74
2023/09/09 02:14:08;;;;;;;7.15;5.38;;;;;;;17.73;100.00;97399.47;5069516;28;20407;-73
2023/09/09 02:16:34;;;;;;;7.68;5.13;;;;;;;17.72;100.00;97407.78;5069695;28;20432;-74
2023/09/09 02:19:00;;;;;;;8.52;6.28;;;;;;;17.71;100.00;97398.94;5069672;28;20489;-74
2023/09/09 02:21:28;;;;;;;8.73;6.50;;;;;;;17.68;100.00;97396.06;5069620;28;20406;-74
2023/09/09 02:23:54;;;;;;;8.38;6.65;;;;;;;17.68;100.00;97398.72;5069384;28;20877;-74
2023/09/09 02:26:20;;;;;;;7.70;6.10;;;;;;;17.67;100.00;97397.94;5069697;28;20415;-74
2023/09/09 02:28:47;;;;;;;7.82;6.18;;;;;;;17.68;100.00;97394.19;5069626;28;20457;-74
2023/09/09 02:31:15;;;;;;;7.70;6.43;;;;;;;17.70;100.00;97396.56;5069749;28;20461;-74
2023/09/09 02:33:41;;;;;;;7.78;6.20;;;;;;;17.68;100.00;97390.69;5069167;28;20419;-74
2023/09/09 02:36:07;;;;;;;8.80;6.10;;;;;;;17.69;100.00;97387.72;5069620;28;20392;-73
2023/09/09 02:38:35;;;;;;;9.60;6.50;;;;;;;17.70;100.00;97391.22;5069545;28;20442;-74
2023/09/09 02:41:02;;;;;;;7.82;6.10;;;;;;;17.69;100.00;97394.97;5069597;28;20428;-73
2023/09/09 02:43:28;;;;;;;8.40;5.95;;;;;;;17.67;100.00;97383.75;5069403;28;20427;-73
2023/09/09 02:45:54;;;;;;;7.28;5.88;;;;;;;17.66;100.00;97390.22;5069433;28;20893;-74
2023/09/09 02:48:21;;;;;;;7.35;5.53;;;;;;;17.65;100.00;97384.06;5069392;28;20486;-74
2023/09/09 02:50:48;;;;;;;7.18;5.80;;;;;;;17.64;100.00;97387.03;5071040;28;20490;-74
2023/09/09 02:53:14;;;;;;;8.38;6.15;;;;;;;17.63;100.00;97382.78;5072833;28;20430;-74
2023/09/09 02:55:40;;;;;;;7.65;6.22;;;;;;;17.60;100.00;97391.34;5072908;28;20403;-74
2023/09/09 02:58:10;;;;;;;7.63;6.20;;;;;;;17.57;100.00;97390.09;5072978;28;20896;-74
2023/09/09 03:00:36;;;;;;;7.35;5.85;;;;;;;17.56;100.00;97385.03;5072984;28;20396;-73
2023/09/09 03:03:03;;;;;;;10.45;7.07;;;;;;;17.53;100.00;97383.72;5072840;28;20939;-74
2023/09/09 03:05:35;;;;;;;8.38;6.35;;;;;;;17.51;100.00;97383.25;5072796;28;20847;-74
2023/09/09 03:08:02;;;;;;;9.20;6.50;;;;;;;17.51;100.00;97385.91;5065394;28;20990;-74
2023/09/09 03:10:28;;;;;;;8.48;6.38;;;;;;;17.49;100.00;97385.41;5072872;28;20757;-74
2023/09/09 03:12:56;;;;;;;8.57;6.30;;;;;;;17.47;100.00;97392.94;5072885;28;20778;-73
2023/09/09 03:15:23;;;;;;;7.55;6.13;;;;;;;17.44;100.00;97388.19;5072508;28;20485;-74
2023/09/09 03:17:49;;;;;;;9.55;6.63;;;;;;;17.41;100.00;97383.41;5072485;28;20791;-74
2023/09/09 03:20:15;;;;;;;12.40;7.80;;;;;;;17.38;100.00;97397.38;5072696;28;21017;-74
2023/09/09 03:22:43;;;;;;;9.30;6.82;;;;;;;17.34;100.00;97391.81;5071919;28;20432;-73
2023/09/09 03:25:09;;;;;;;12.10;7.57;;;;;;;17.31;100.00;97381.69;5072262;28;20490;-74
2023/09/09 03:27:36;;;;;;;8.63;5.97;;;;;;;17.29;100.00;97389.22;5072472;28;20399;-74
2023/09/09 03:30:03;;;;;;;7.60;6.18;;;;;;;17.30;100.00;97387.34;5072569;28;20404;-74
2023/09/09 03:32:30;;;;;;;8.35;6.72;;;;;;;17.29;100.00;97385.78;5072423;28;20760;-74
2023/09/09 03:34:56;;;;;;;10.10;7.07;;;;;;;17.27;100.00;97385.28;5071948;28;20457;-73
2023/09/09 03:37:22;;;;;;;7.63;6.07;;;;;;;17.26;100.00;97383.69;5072286;28;20399;-74
2023/09/09 03:39:50;;;;;;;8.95;6.25;;;;;;;17.24;100.00;97383.16;5072200;28;20904;-74
2023/09/09 03:42:17;;;;;;;8.85;5.82;;;;;;;17.23;100.00;97387.72;5072395;28;20403;-74
2023/09/09 03:44:43;;;;;;;7.50;6.18;;;;;;;17.21;100.00;97395.28;5071754;28;20403;-74
2023/09/09 03:47:09;;;;;;;10.02;7.63;;;;;;;17.19;100.00;97385.94;5072023;28;20754;-74
2023/09/09 03:49:35;;;;;;;12.05;8.23;;;;;;;17.15;100.00;97390.28;5071931;28;20414;-73
2023/09/09 03:52:02;;;;;;;10.73;7.15;;;;;;;17.12;100.00;97394.34;5071976;28;20856;-73
2023/09/09 03:54:29;;;;;;;11.25;7.78;;;;;;;17.10;100.00;97385.81;5071519;28;20443;-73
2023/09/09 03:56:56;;;;;;;8.63;6.83;;;;;;;17.10;100.00;97391.16;5071746;28;20406;-74
2023/09/09 03:59:23;;;;;;;8.15;6.40;;;;;;;17.10;100.00;97385.81;5071826;28;20445;-74
2023/09/09 04:01:49;;;;;;;8.38;6.07;;;;;;;17.10;100.00;97399.19;5071633;28;20395;-74
2023/09/09 04:04:15;;;;;;;7.75;6.18;;;;;;;17.11;100.00;97397.31;5071669;28;20415;-73
2023/09/09 04:06:41;;;;;;;8.83;6.87;;;;;;;17.09;100.00;97394.13;5071548;28;20952;-73
2023/09/09 04:09:07;;;;;;;9.40;7.55;;;;;;;17.06;100.00;97394.72;5071774;28;20395;-74
2023/09/09 04:11:34;;;;;;;7.97;6.45;;;;;;;17.05;100.00;97395.81;5071582;28;20427;-73
2023/09/09 04:14:01;;;;;;;8.25;7.00;;;;;;;17.03;100.00;97386.19;5071183;28;20408;-73
2023/09/09 04:16:27;;;;;;;7.93;6.63;;;;;;;17.01;100.00;97396.38;5071479;28;20399;-73
2023/09/09 04:18:54;;;;;;;8.30;6.40;;;;;;;16.98;100.00;97398.84;5071524;28;20411;-72
2023/09/09 04:21:20;;;;;;;9.77;7.25;;;;;;;16.94;100.00;97403.97;5071316;28;20446;-73
2023/09/09 04:23:46;;;;;;;10.37;7.93;;;;;;;16.92;100.00;97397.31;5070817;28;20392;-73
2023/09/09 04:26:12;;;;;;;8.70;6.90;;;;;;;16.90;100.00;97399.50;5071430;28;20396;-73
2023/09/09 04:28:40;;;;;;;8.45;6.55;;;;;;;16.89;100.00;97398.72;5071344;28;20410;-73
2023/09/09 04:31:07;;;;;;;9.32;7.25;;;;;;;16.87;100.00;97400.09;5071212;28;20400;-73
2023/09/09 04:33:33;;;;;;;9.13;7.07;;;;;;;16.87;100.00;97397.41;5070697;28;20415;-74
2023/09/09 04:36:00;;;;;;;9.77;7.43;;;;;;;16.85;100.00;97397.69;5070991;28;20941;-73
2023/09/09 04:38:26;;;;;;;9.70;8.07;;;;;;;16.84;100.00;97408.69;5070904;28;20423;-73
2023/09/09 04:40:52;;;;;;;8.07;6.43;;;;;;;16.83;100.00;97402.56;5071057;28;20400;-74
2023/09/09 04:43:20;;;;;;;8.32;6.65;;;;;;;16.84;100.00;97400.69;5070740;28;20718;-74
2023/09/09 04:45:46;;;;;;;8.60;6.83;;;;;;;16.84;100.00;97400.69;5070965;28;20422;-73
2023/09/09 04:48:14;;;;;;;9.38;6.63;;;;;;;16.85;100.00;97403.03;5071017;28;20403;-74
2023/09/09 04:50:40;;;;;;;8.40;6.60;;;;;;;16.85;100.00;97405.72;5070894;28;20745;-74
2023/09/09 04:53:07;;;;;;;8.80;7.03;;;;;;;16.85;100.00;97399.56;5070694;28;20457;-73
2023/09/09 04:55:34;;;;;;;9.10;6.90;;;;;;;16.84;100.00;97403.34;5070388;28;20473;-72
2023/09/09 04:58:00;;;;;;;9.07;7.38;;;;;;;16.83;100.00;97407.09;5070678;28;20876;-73
2023/09/09 05:00:26;;;;;;;8.80;6.75;;;;;;;16.83;100.00;97409.78;5070684;28;20478;-73
2023/09/09 05:02:52;;;;;;;8.83;7.30;;;;;;;16.81;100.00;97409.28;5070542;28;21198;-73
2023/09/09 05:05:20;;;;;;;7.68;6.28;;;;;;;16.81;100.00;97404.72;5070280;28;20534;-74
2023/09/09 05:07:46;;;;;;;8.73;7.03;;;;;;;16.80;100.00;97413.81;5070628;28;20757;-73
2023/09/09 05:10:13;;;;;;;8.35;6.55;;;;;;;16.81;100.00;97410.06;5070628;28;20399;-73
2023/09/09 05:12:39;;;;;;;14.27;9.75;;;;;;;16.78;100.00;97410.63;5070072;28;20422;-74
2023/09/09 05:15:07;;;;;;;10.30;7.95;;;;;;;16.79;100.00;97412.22;5069941;28;20416;-73
2023/09/09 05:17:33;;;;;;;11.27;7.97;;;;;;;16.79;100.00;97411.44;5070265;28;20396;-74
2023/09/09 05:20:00;;;;;;;11.32;8.52;;;;;;;16.78;100.00;97409.84;5070346;28;20411;-74
2023/09/09 05:22:27;;;;;;;10.70;7.93;;;;;;;16.79;100.00;97409.56;5070214;28;20502;-74
2023/09/09 05:24:53;;;;;;;10.18;7.75;;;;;;;16.80;100.00;97413.81;5070120;28;20745;-74
2023/09/09 05:27:19;;;;;;;9.38;7.82;;;;;;;16.82;100.00;97414.34;5070217;28;20457;-74
2023/09/09 05:29:47;;;;;;;9.85;7.88;;;;;;;16.83;100.00;97415.94;5070245;28;20408;-74
2023/09/09 05:32:13;;;;;;;9.15;7.40;;;;;;;16.85;100.00;97415.59;5070193;28;20400;-74
2023/09/09 05:34:40;;;;;;;9.93;7.40;;;;;;;16.88;100.00;97420.38;5069653;28;20411;-74
2023/09/09 05:37:06;;;;;;;9.88;7.05;;;;;;;16.90;100.00;97424.38;5070161;28;20495;-74
2023/09/09 05:39:33;;;;;;;9.52;7.82;;;;;;;16.93;100.00;97422.97;5070202;28;20403;-74
2023/09/09 05:42:00;;;;;;;10.90;8.15;;;;;;;16.97;100.00;97427.47;5070042;28;20940;-74
2023/09/09 05:44:26;;;;;;;11.17;8.30;;;;;;;16.99;100.00;97427.16;5069834;28;20742;-74
2023/09/09 05:46:52;;;;;;;9.38;7.20;;;;;;;17.02;100.00;97426.59;5069890;28;20489;-74
2023/09/09 05:49:18;;;;;;;9.20;7.43;;;;;;;17.06;100.00;97430.28;5070065;28;20489;-74
2023/09/09 05:51:45;;;;;;;8.85;7.20;;;;;;;17.08;100.00;97430.78;5069972;28;20411;-74
2023/09/09 05:54:11;;;;;;;8.60;6.82;;;;;;;17.12;100.00;97437.13;5069609;28;20419;-74
2023/09/09 05:56:38;;;;;;;8.13;6.60;;;;;;;17.16;100.00;97435.47;5069609;28;20399;-74
2023/09/09 05:59:07;;;;;;;9.70;6.78;;;;;;;17.20;100.00;97441.81;5070032;28;20976;-73
2023/09/09 06:01:34;;;;;;;7.53;6.35;;;;;;;17.24;100.00;97434.00;5069891;28;20423;-74
2023/09/09 06:04:00;;;;;;;7.93;6.20;;;;;;;17.27;100.00;97436.09;5069284;28;20766;-74
2023/09/09 06:06:26;;;;;;;7.70;6.40;;;;;;;17.31;100.00;97437.09;5070074;28;20408;-72
2023/09/09 06:08:53;;;;;;;8.65;6.90;;;;;;;17.36;100.00;97439.69;5068158;28;20976;-72
2023/09/09 06:11:19;;;;;;;8.38;6.63;;;;;;;17.41;100.00;97436.94;5069474;28;20392;-73
2023/09/09 06:13:46;;;;;;;8.40;6.88;;;;;;;17.46;100.00;97444.88;5069794;28;20411;-73
2023/09/09 06:16:12;;;;;;;12.77;7.72;;;;;;;17.49;100.00;97441.63;5069519;28;20408;-72
2023/09/09 06:18:39;;;;;;;10.18;7.43;;;;;;;17.53;100.00;97442.59;5055635;28;20406;-73
2023/09/09 06:21:05;;;;;;;11.45;7.70;;;;;;;17.58;100.00;97449.75;5069773;28;20514;-72
2023/09/09 06:23:31;;;;;;;10.60;7.78;;;;;;;17.63;100.00;97453.16;5069706;28;20400;-73
2023/09/09 06:25:57;;;;;;;7.80;6.43;;;;;;;17.69;100.00;97441.28;5071392;28;20399;-72
2023/09/09 06:28:23;;;;;;;10.70;6.70;;;;;;;17.76;100.00;97446.25;5073808;28;20399;-74
2023/09/09 06:30:51;;;;;;;11.10;7.15;;;;;;;17.83;100.00;97448.53;5073984;28;20749;-73
2023/09/09 06:33:17;;;;;;;10.70;6.43;;;;;;;17.91;100.00;97450.53;5073575;28;20400;-73
2023/09/09 06:35:50;;;;;;;8.07;6.53;;;;;;;18.00;100.00;97443.41;5073179;28;20446;-74
2023/09/09 06:38:16;;;;;;;9.20;6.70;;;;;;;18.06;100.00;97451.03;5073014;28;20402;-73
2023/09/09 06:40:44;;;;;;;8.57;6.45;;;;;;;18.13;100.00;97448.75;5073639;28;20399;-74
2023/09/09 06:43:10;;;;;;;8.23;6.22;;;;;;;18.22;100.00;97448.84;5073386;28;20412;-74
2023/09/09 06:45:37;;;;;;;10.77;6.40;;;;;;;18.29;100.00;97454.59;5072500;28;20757;-75
2023/09/09 06:48:05;;;;;;;10.30;6.90;;;;;;;18.39;100.00;97453.63;5072579;28;20485;-76
2023/09/09 06:50:31;;;;;;;9.18;6.82;;;;;;;18.48;100.00;97462.53;5072697;28;20395;-73
2023/09/09 06:52:57;;;;;;;8.32;6.70;;;;;;;18.57;100.00;97458.06;5072130;28;20404;-73
2023/09/09 06:55:24;;;;;;;8.23;6.68;;;;;;;18.66;100.00;97458.97;5072861;28;20415;-74
2023/09/09 06:57:50;;;;;;;7.72;6.38;;;;;;;18.76;100.00;97464.09;5072983;28;20412;-74
2023/09/09 07:00:16;;;;;;;6.72;5.72;;;;;;;18.85;100.00;97467.66;5073475;28;20410;-73
2023/09/09 07:02:42;;;;;;;9.90;5.97;;;;;;;18.95;100.00;97463.94;5073285;28;20403;-72
2023/09/09 07:05:16;;;;;;;8.25;6.20;;;;;;;19.06;100.00;97469.88;5073043;28;20938;-71
2023/09/09 07:07:43;;;;;;;7.55;6.07;;;;;;;19.17;100.00;97466.66;5072416;28;20399;-71
2023/09/09 07:10:10;;;;;;;6.57;5.32;;;;;;;19.27;100.00;97471.78;5054678;28;20897;-71
2023/09/09 07:12:36;;;;;;;6.38;5.10;;;;;;;19.39;100.00;97476.63;5072908;28;20772;-71
2023/09/09 07:15:03;;;;;;;5.97;5.20;;;;;;;19.49;100.00;97476.41;5071896;28;20901;-71
2023/09/09 07:17:29;;;;;;;8.23;5.35;;;;;;;19.60;100.00;97472.38;5072271;28;20888;-71
2023/09/09 07:19:55;;;;;;;8.23;5.70;;;;;;;19.71;100.00;97475.56;5072277;28;20399;-71
2023/09/09 07:22:23;;;;;;;7.68;5.70;;;;;;;19.81;100.00;97467.28;5072249;28;20400;-71
2023/09/09 07:24:49;;;;;;;9.57;5.37;;;;;;;19.92;100.00;97468.56;5071583;28;20475;-71
2023/09/09 07:27:16;;;;;;;7.80;6.05;;;;;;;20.06;100.00;97477.34;5072178;28;20975;-71
2023/09/09 07:29:42;;;;;;;7.65;6.07;;;;;;;20.20;100.00;97479.13;5071446;28;20490;-71
2023/09/09 07:32:08;;;;;;;7.40;5.90;;;;;;;20.34;100.00;97469.09;5070423;28;20396;-71
2023/09/09 07:34:34;;;;;;;9.57;6.72;;;;;;;20.49;100.00;97482.13;5070071;28;20932;-71
2023/09/09 07:37:00;;;;;;;9.63;7.25;;;;;;;20.63;100.00;97472.00;5069724;28;20482;-71
2023/09/09 07:39:28;;;;;;;9.32;6.75;;;;;;;20.77;100.00;97478.06;5070152;28;20392;-72
2023/09/09 07:41:54;;;;;;;8.40;6.60;;;;;;;20.90;100.00;97478.25;5070209;28;20395;-71
2023/09/09 07:44:20;;;;;;;7.10;5.80;;;;;;;21.02;100.00;97476.50;5070271;28;20732;-71
2023/09/09 07:46:47;;;;;;;6.25;5.50;;;;;;;21.14;100.00;97475.84;5071663;28;20476;-71
2023/09/09 07:49:13;;;;;;;6.43;5.65;;;;;;;21.26;100.00;97473.38;5071959;28;21010;-71
2023/09/09 07:51:39;;;;;;;6.40;5.25;;;;;;;21.38;100.00;97475.41;5068543;28;20454;-71
2023/09/09 07:54:06;;;;;;;6.38;5.47;;;;;;;21.47;100.00;97478.88;5063900;28;20415;-72
2023/09/09 07:56:33;;;;;;;7.97;5.50;;;;;;;21.57;100.00;97481.25;5071490;28;20403;-72
2023/09/09 07:58:59;;;;;;;7.13;5.03;;;;;;;21.66;100.00;97479.31;5072019;28;20407;-72
2023/09/09 08:01:26;;;;;;;6.43;5.53;;;;;;;21.78;100.00;97481.38;5071914;28;20407;-72
2023/09/09 08:03:52;;;;;;;6.22;5.15;;;;;;;21.88;100.00;97489.09;5071862;28;20392;-72
2023/09/09 08:06:18;;;;;;;9.73;5.90;;;;;;;21.98;100.00;97486.09;5071334;28;20421;-72
2023/09/09 08:08:44;;;;;;;6.72;5.53;;;;;;;22.10;100.00;97491.63;5071824;28;20400;-72
2023/09/09 08:11:11;;;;;;;7.00;5.25;;;;;;;22.19;100.00;97489.66;5071618;28;20814;-72
2023/09/09 08:13:39;;;;;;;7.45;5.45;;;;;;;22.29;100.00;97492.00;5071386;28;20395;-72
2023/09/09 08:16:05;;;;;;;6.53;5.63;;;;;;;22.39;100.00;97493.56;5071783;28;20411;-72
2023/09/09 08:18:31;;;;;;;6.40;5.30;;;;;;;22.47;100.00;97498.13;5071775;28;20400;-72
2023/09/09 08:20:57;;;;;;;6.57;4.93;;;;;;;22.58;100.00;97495.81;5071776;28;20407;-72
2023/09/09 08:23:24;;;;;;;6.03;5.20;;;;;;;22.68;100.00;97493.56;5071302;28;20400;-72
2023/09/09 08:25:50;;;;;;;6.53;4.95;;;;;;;22.80;100.00;97492.88;5071583;28;20453;-72
2023/09/09 08:28:16;;;;;;;5.55;4.95;;;;;;;22.94;100.00;97489.91;5071886;28;20410;-72
2023/09/09 08:30:44;;;;;;;5.25;4.75;;;;;;;23.10;100.00;97496.31;5072173;28;20860;-72
2023/09/09 08:33:10;;;;;;;5.78;4.85;;;;;;;23.26;100.00;97500.00;5071736;28;20792;-72
2023/09/09 08:35:36;;;;;;;5.93;5.05;;;;;;;23.41;100.00;97506.72;5071470;28;20408;-71
2023/09/09 08:38:04;;;;;;;6.10;5.25;;;;;;;23.55;100.00;97501.84;5071460;28;20391;-71
2023/09/09 08:40:39;;;;;;;7.00;5.10;;;;;;;23.67;100.00;97496.50;5071229;28;20490;-72
2023/09/09 08:43:18;;;;;;;7.32;5.00;;;;;;;23.75;100.00;97490.22;5071815;28;20821;-72
2023/09/09 08:45:56;;;;;;;6.07;5.20;;;;;;;23.82;100.00;97497.78;5071429;28;20396;-72
2023/09/09 08:48:27;;;;;;;6.28;5.40;;;;;;;23.88;100.00;97494.53;5070792;28;20470;-72
2023/09/09 08:50:56;;;;;;;6.70;5.07;;;;;;;23.95;100.00;97499.38;5071552;28;20403;-72
2023/09/09 08:53:25;;;;;;;6.63;5.53;;;;;;;24.01;100.00;97498.03;5072126;28;20407;-72
2023/09/09 08:55:53;;;;;;;6.07;4.97;;;;;;;24.05;100.00;97498.16;5069354;28;20520;-72
2023/09/09 08:58:19;;;;;;;6.55;5.22;;;;;;;24.07;100.00;97495.91;5069329;28;20465;-72
2023/09/09 09:00:46;;;;;;;7.15;5.30;;;;;;;24.11;100.00;97503.03;5051985;28;20450;-72
2023/09/09 09:03:14;;;;;;;7.63;5.35;;;;;;;24.19;100.00;97499.44;5069942;28;20406;-72
2023/09/09 09:05:42;;;;;;;8.07;5.25;;;;;;;24.24;100.00;97504.63;5068618;28;20391;-72
2023/09/09 09:08:09;;;;;;;7.30;5.50;;;;;;;24.32;100.00;97499.47;5069584;28;20495;-72
2023/09/09 09:10:36;;;;;;;6.57;5.00;;;;;;;24.42;100.00;97504.44;5069426;28;20411;-72
2023/09/09 09:13:02;;;;;;;6.78;5.07;;;;;;;24.52;100.00;97503.97;5069903;28;20403;-72
2023/09/09 09:15:31;;;;;;;6.97;5.27;;;;;;;24.61;100.00;97497.31;5070144;28;21078;-72
2023/09/09 09:18:00;;;;;;;5.47;4.53;;;;;;;24.75;100.00;97501.59;5068053;28;20454;-72
2023/09/09 09:20:27;;;;;;;7.22;5.25;;;;;;;24.79;100.00;97497.09;5070082;28;20927;-72
2023/09/09 09:22:58;;;;;;;5.90;4.60;;;;;;;24.85;100.00;97506.53;5067394;28;22064;-72
2023/09/09 09:25:27;;;;;;;5.93;4.82;;;;;;;24.94;100.00;97502.63;5069087;28;20400;-72
2023/09/09 09:27:56;;;;;;;5.88;4.68;;;;;;;25.12;100.00;97500.41;5070305;28;20474;-73
2023/09/09 09:30:28;;;;;;;6.57;4.50;;;;;;;25.35;100.00;97493.34;5070489;28;20404;-72
2023/09/09 09:32:55;;;;;;;6.30;4.70;;;;;;;25.62;100.00;97496.44;5070320;28;20398;-72
2023/09/09 09:35:26;;;;;;;5.68;4.60;;;;;;;25.87;100.00;97494.38;5068841;28;20552;-73
2023/09/09 09:37:55;;;;;;;6.68;5.00;;;;;;;26.14;100.00;97496.28;5069745;28;20404;-72
2023/09/09 09:40:21;;;;;;;7.80;4.60;;;;;;;26.43;100.00;97495.06;5070179;28;20457;-73
2023/09/09 09:42:48;;;;;;;5.18;4.65;;;;;;;26.73;100.00;97490.72;5070138;28;20484;-71
2023/09/09 09:45:15;;;;;;;5.63;4.80;;;;;;;27.01;100.00;97492.53;5069811;28;20510;-72
2023/09/09 09:47:43;;;;;;;5.82;4.60;;;;;;;27.21;100.00;97486.78;5067494;28;20424;-72
2023/09/09 09:50:18;;;;;;;5.97;4.43;;;;;;;27.35;100.00;97494.44;5069282;28;20804;-73
2023/09/09 09:52:55;;;;;;;5.32;4.50;;;;;;;27.41;100.00;97492.22;5068886;28;20592;-72
2023/09/09 09:55:21;;;;;;;6.67;4.63;;;;;;;27.45;100.00;97488.41;5065222;28;20412;-72
2023/09/09 09:57:48;;;;;;;6.22;4.80;;;;;;;27.47;100.00;97493.50;5069749;28;20411;-72
2023/09/09 10:00:16;;;;;;;5.67;4.37;;;;;;;27.45;100.00;97491.13;5072898;28;20472;-72
2023/09/09 10:02:45;;;;;;;5.82;4.80;;;;;;;27.53;100.00;97484.72;5074129;28;20407;-73
2023/09/09 10:05:14;;;;;;;5.95;4.85;;;;;;;27.60;100.00;97490.28;5071314;28;20399;-72
2023/09/09 10:07:45;;;;;;;6.70;4.75;;;;;;;27.65;100.00;97483.78;5074090;28;20742;-72
2023/09/09 10:10:16;;;;;;;5.55;4.35;;;;;;;27.65;100.00;97486.50;5073543;28;20433;-73
2023/09/09 10:12:50;;;;;;;4.80;3.90;;;;;;;27.62;100.00;97490.72;5073731;28;20432;-72
2023/09/09 10:15:18;;;;;;;4.47;3.70;;;;;;;27.60;100.00;97487.56;5073651;28;20416;-72
2023/09/09 10:17:45;;;;;;;4.57;4.07;;;;;;;27.56;100.00;97489.44;5074274;28;20411;-72
2023/09/09 10:20:11;;;;;;;4.80;4.00;;;;;;;27.55;100.00;97487.88;5073784;28;20431;-72
2023/09/09 10:22:40;;;;;;;10.23;5.10;;;;;;;27.50;100.00;97490.84;5074016;28;20400;-72
2023/09/09 10:25:10;;;;;;;5.70;4.27;;;;;;;27.49;100.00;97483.84;5073717;28;20407;-72
2023/09/09 10:27:39;;;;;;;4.57;4.00;;;;;;;27.52;100.00;97490.47;5072608;28;20987;-72
2023/09/09 10:30:07;;;;;;;5.93;4.13;;;;;;;27.55;100.00;97485.16;5072270;28;20758;-72
2023/09/09 10:32:36;;;;;;;6.45;5.03;;;;;;;27.51;100.00;97483.47;5071616;28;20414;-72
2023/09/09 10:35:05;;;;;;;5.93;4.60;;;;;;;27.56;100.00;97486.72;5053054;28;20427;-72
2023/09/09 10:37:34;;;;;;;5.38;4.10;;;;;;;27.60;100.00;97482.13;5073406;28;20396;-72
2023/09/09 10:40:03;;;;;;;5.53;4.00;;;;;;;27.64;100.00;97482.22;5073496;28;20815;-73
2023/09/09 10:42:30;;;;;;;7.03;4.80;;;;;;;27.61;100.00;97477.47;5073301;28;20491;-71
2023/09/09 10:45:22;;;;;;;6.60;4.13;;;;;;;27.66;100.00;97475.28;5073057;28;20506;-72
2023/09/09 10:47:55;;;;;;;5.63;4.30;;;;;;;27.74;100.00;97474.22;5073061;28;20403;-72
2023/09/09 10:50:22;;;;;;;5.05;3.60;;;;;;;27.81;100.00;97478.25;5073280;28;20414;-71
2023/09/09 10:53:11;;;;;;;9.98;5.47;;;;;;;27.69;100.00;97481.91;5072960;28;20407;-71
2023/09/09 10:55:37;;;;;;;5.35;4.18;;;;;;;27.82;100.00;97480.59;5072781;28;20411;-71
2023/09/09 10:58:07;;;;;;;6.38;4.13;;;;;;;27.86;100.00;97477.94;5073101;28;20414;-71
2023/09/09 11:00:41;;;;;;;5.13;3.95;;;;;;;27.93;100.00;97478.06;5073022;28;20399;-72
2023/09/09 11:03:11;;;;;;;4.88;3.88;;;;;;;28.00;100.00;97472.75;5073019;28;20411;-72
2023/09/09 11:05:57;;;;;;;6.38;4.75;;;;;;;28.09;100.00;97479.53;5072735;28;20749;-72
2023/09/09 11:08:32;;;;;;;9.77;4.72;;;;;;;28.17;100.00;97474.25;5072863;28;20399;-72
2023/09/09 11:11:10;;;;;;;6.90;4.30;;;;;;;28.21;100.00;97475.84;5072053;28;20877;-72
2023/09/09 11:13:40;;;;;;;6.15;4.00;;;;;;;28.31;100.00;97477.19;5072294;28;20446;-72
2023/09/09 11:16:22;;;;;;;6.20;4.30;;;;;;;28.40;100.00;97469.56;5072677;28;20897;-72
2023/09/09 11:18:49;;;;;;;5.55;4.13;;;;;;;28.39;100.00;97473.44;5072859;28;20396;-72
2023/09/09 11:21:15;;;;;;;6.93;5.05;;;;;;;28.31;100.00;97477.19;5054548;28;20855;-72
2023/09/09 11:23:45;;;;;;;7.45;4.75;;;;;;;28.37;100.00;97467.56;5072189;28;20395;-71
2023/09/09 11:26:11;;;;;;;6.95;4.30;;;;;;;28.45;100.00;97469.25;5072373;28;20825;-71